sensor_id;sensor_type;location;lat;lon;timestamp;P1;durP1;ratioP1;P2;durP2;ratioP2
50309;SDS011;36207;51.850;21.698;2024-01-25T00:01:35;10.00;;;3.00;;
50309;SDS011;36207;51.850;21.698;2024-01-25T00:04:01;10.30;;;3.10;;
50309;SDS011;36207;51.850;21.698;2024-01-25T00:06:27;9.60;;;3.40;;
50309;SDS011;36207;51.850;21.698;2024-01-25T00:08:53;8.40;;;3.10;;
50309;SDS011;36207;51.850;21.698;2024-01-25T00:11:19;13.20;;;3.40;;
50309;SDS011;36207;51.850;21.698;2024-01-25T00:13:45;10.40;;;3.40;;
50309;SDS011;36207;51.850;21.698;2024-01-25T00:16:11;10.00;;;3.20;;
50309;SDS011;36207;51.850;21.698;2024-01-25T00:18:38;12.10;;;3.30;;
50309;SDS011;36207;51.850;21.698;2024-01-25T00:21:04;10.50;;;3.00;;
50309;SDS011;36207;51.850;21.698;2024-01-25T00:23:30;13.50;;;3.90;;
50309;SDS011;36207;51.850;21.698;2024-01-25T00:25:56;11.70;;;3.50;;
50309;SDS011;36207;51.850;21.698;2024-01-25T00:28:24;10.50;;;3.10;;
50309;SDS011;36207;51.850;21.698;2024-01-25T00:30:51;13.50;;;3.10;;
50309;SDS011;36207;51.850;21.698;2024-01-25T00:33:17;9.20;;;2.80;;
50309;SDS011;36207;51.850;21.698;2024-01-25T00:35:44;9.90;;;2.90;;
50309;SDS011;36207;51.850;21.698;2024-01-25T00:38:10;10.00;;;3.10;;
50309;SDS011;36207;51.850;21.698;2024-01-25T00:40:36;9.00;;;3.00;;
50309;SDS011;36207;51.850;21.698;2024-01-25T00:43:03;10.10;;;3.00;;
50309;SDS011;36207;51.850;21.698;2024-01-25T00:45:29;10.80;;;2.90;;
50309;SDS011;36207;51.850;21.698;2024-01-25T00:47:56;9.00;;;2.40;;
50309;SDS011;36207;51.850;21.698;2024-01-25T00:50:22;8.20;;;2.40;;
50309;SDS011;36207;51.850;21.698;2024-01-25T00:52:52;8.50;;;2.50;;
50309;SDS011;36207;51.850;21.698;2024-01-25T00:55:19;6.60;;;2.30;;
50309;SDS011;36207;51.850;21.698;2024-01-25T00:57:45;6.70;;;2.10;;
50309;SDS011;36207;51.850;21.698;2024-01-25T01:00:12;5.20;;;1.60;;
50309;SDS011;36207;51.850;21.698;2024-01-25T01:02:47;5.40;;;1.70;;
50309;SDS011;36207;51.850;21.698;2024-01-25T01:05:13;7.80;;;1.90;;
50309;SDS011;36207;51.850;21.698;2024-01-25T01:07:40;7.20;;;2.40;;
50309;SDS011;36207;51.850;21.698;2024-01-25T01:10:07;7.10;;;2.20;;
50309;SDS011;36207;51.850;21.698;2024-01-25T01:12:34;6.10;;;1.70;;
50309;SDS011;36207;51.850;21.698;2024-01-25T01:15:01;6.80;;;2.30;;
50309;SDS011;36207;51.850;21.698;2024-01-25T01:17:27;5.50;;;1.60;;
50309;SDS011;36207;51.850;21.698;2024-01-25T01:19:53;4.90;;;1.90;;
50309;SDS011;36207;51.850;21.698;2024-01-25T01:22:19;4.90;;;1.90;;
50309;SDS011;36207;51.850;21.698;2024-01-25T01:24:45;5.40;;;2.30;;
50309;SDS011;36207;51.850;21.698;2024-01-25T01:27:11;5.00;;;2.00;;
50309;SDS011;36207;51.850;21.698;2024-01-25T01:29:37;6.30;;;2.50;;
50309;SDS011;36207;51.850;21.698;2024-01-25T01:32:03;5.60;;;2.10;;
50309;SDS011;36207;51.850;21.698;2024-01-25T01:34:29;6.80;;;2.30;;
50309;SDS011;36207;51.850;21.698;2024-01-25T01:36:55;7.40;;;2.20;;
50309;SDS011;36207;51.850;21.698;2024-01-25T01:39:21;7.70;;;2.80;;
50309;SDS011;36207;51.850;21.698;2024-01-25T01:41:47;9.50;;;2.80;;
50309;SDS011;36207;51.850;21.698;2024-01-25T01:44:16;6.10;;;2.40;;
50309;SDS011;36207;51.850;21.698;2024-01-25T01:46:42;7.70;;;2.50;;
50309;SDS011;36207;51.850;21.698;2024-01-25T01:49:12;9.00;;;2.90;;
50309;SDS011;36207;51.850;21.698;2024-01-25T01:51:40;11.00;;;2.70;;
50309;SDS011;36207;51.850;21.698;2024-01-25T01:54:10;12.00;;;3.00;;
50309;SDS011;36207;51.850;21.698;2024-01-25T01:56:36;8.70;;;2.80;;
50309;SDS011;36207;51.850;21.698;2024-01-25T01:59:04;8.50;;;2.90;;
50309;SDS011;36207;51.850;21.698;2024-01-25T02:01:32;12.10;;;3.00;;
50309;SDS011;36207;51.850;21.698;2024-01-25T02:03:58;11.30;;;2.90;;
50309;SDS011;36207;51.850;21.698;2024-01-25T02:06:24;12.40;;;3.10;;
50309;SDS011;36207;51.850;21.698;2024-01-25T02:08:51;11.40;;;3.30;;
50309;SDS011;36207;51.850;21.698;2024-01-25T02:11:27;11.10;;;3.00;;
50309;SDS011;36207;51.850;21.698;2024-01-25T02:13:53;14.20;;;3.60;;
50309;SDS011;36207;51.850;21.698;2024-01-25T02:16:20;9.40;;;2.80;;
50309;SDS011;36207;51.850;21.698;2024-01-25T02:18:46;11.60;;;3.20;;
50309;SDS011;36207;51.850;21.698;2024-01-25T02:21:13;11.00;;;3.00;;
50309;SDS011;36207;51.850;21.698;2024-01-25T02:23:39;8.30;;;3.00;;
50309;SDS011;36207;51.850;21.698;2024-01-25T02:26:05;11.10;;;3.00;;
50309;SDS011;36207;51.850;21.698;2024-01-25T02:28:31;7.50;;;2.60;;
50309;SDS011;36207;51.850;21.698;2024-01-25T02:30:58;8.60;;;2.60;;
50309;SDS011;36207;51.850;21.698;2024-01-25T02:33:26;9.90;;;2.70;;
50309;SDS011;36207;51.850;21.698;2024-01-25T02:35:51;11.50;;;3.10;;
50309;SDS011;36207;51.850;21.698;2024-01-25T02:38:17;12.10;;;3.50;;
50309;SDS011;36207;51.850;21.698;2024-01-25T02:40:44;13.80;;;3.30;;
50309;SDS011;36207;51.850;21.698;2024-01-25T02:43:10;12.90;;;3.00;;
50309;SDS011;36207;51.850;21.698;2024-01-25T02:45:36;13.20;;;3.50;;
50309;SDS011;36207;51.850;21.698;2024-01-25T02:48:02;9.10;;;2.70;;
50309;SDS011;36207;51.850;21.698;2024-01-25T02:50:29;11.00;;;2.90;;
50309;SDS011;36207;51.850;21.698;2024-01-25T02:52:55;11.30;;;3.30;;
50309;SDS011;36207;51.850;21.698;2024-01-25T02:55:21;10.60;;;2.90;;
50309;SDS011;36207;51.850;21.698;2024-01-25T02:57:47;11.10;;;3.30;;
50309;SDS011;36207;51.850;21.698;2024-01-25T03:00:13;12.30;;;3.20;;
50309;SDS011;36207;51.850;21.698;2024-01-25T03:02:39;12.40;;;3.50;;
50309;SDS011;36207;51.850;21.698;2024-01-25T03:05:05;12.30;;;3.30;;
50309;SDS011;36207;51.850;21.698;2024-01-25T03:07:31;11.30;;;3.60;;
50309;SDS011;36207;51.850;21.698;2024-01-25T03:09:57;13.90;;;3.30;;
50309;SDS011;36207;51.850;21.698;2024-01-25T03:12:23;12.60;;;3.90;;
50309;SDS011;36207;51.850;21.698;2024-01-25T03:14:49;14.30;;;3.50;;
50309;SDS011;36207;51.850;21.698;2024-01-25T03:17:16;11.50;;;3.30;;
50309;SDS011;36207;51.850;21.698;2024-01-25T03:19:41;11.10;;;3.00;;
50309;SDS011;36207;51.850;21.698;2024-01-25T03:22:07;12.50;;;3.40;;
50309;SDS011;36207;51.850;21.698;2024-01-25T03:24:36;13.20;;;3.20;;
50309;SDS011;36207;51.850;21.698;2024-01-25T03:27:04;11.90;;;3.10;;
50309;SDS011;36207;51.850;21.698;2024-01-25T03:29:30;15.80;;;3.70;;
50309;SDS011;36207;51.850;21.698;2024-01-25T03:31:57;12.40;;;3.10;;
50309;SDS011;36207;51.850;21.698;2024-01-25T03:34:22;10.90;;;3.20;;
50309;SDS011;36207;51.850;21.698;2024-01-25T03:36:48;12.40;;;3.30;;
50309;SDS011;36207;51.850;21.698;2024-01-25T03:39:16;10.40;;;2.80;;
50309;SDS011;36207;51.850;21.698;2024-01-25T03:41:43;11.00;;;2.80;;
50309;SDS011;36207;51.850;21.698;2024-01-25T03:44:09;10.70;;;2.90;;
50309;SDS011;36207;51.850;21.698;2024-01-25T03:46:35;9.70;;;2.70;;
50309;SDS011;36207;51.850;21.698;2024-01-25T03:49:00;11.70;;;2.70;;
50309;SDS011;36207;51.850;21.698;2024-01-25T03:51:26;8.40;;;2.60;;
50309;SDS011;36207;51.850;21.698;2024-01-25T03:53:53;11.40;;;2.80;;
50309;SDS011;36207;51.850;21.698;2024-01-25T03:56:20;9.80;;;3.40;;
50309;SDS011;36207;51.850;21.698;2024-01-25T03:58:48;9.90;;;2.90;;
50309;SDS011;36207;51.850;21.698;2024-01-25T04:01:14;10.40;;;2.70;;
50309;SDS011;36207;51.850;21.698;2024-01-25T04:03:40;10.60;;;2.70;;
50309;SDS011;36207;51.850;21.698;2024-01-25T04:06:06;9.30;;;2.70;;
50309;SDS011;36207;51.850;21.698;2024-01-25T04:08:32;10.30;;;3.20;;
50309;SDS011;36207;51.850;21.698;2024-01-25T04:10:58;10.70;;;2.60;;
50309;SDS011;36207;51.850;21.698;2024-01-25T04:13:24;13.40;;;3.30;;
50309;SDS011;36207;51.850;21.698;2024-01-25T04:15:50;10.40;;;2.80;;
50309;SDS011;36207;51.850;21.698;2024-01-25T04:18:16;9.20;;;2.70;;
50309;SDS011;36207;51.850;21.698;2024-01-25T04:20:43;11.40;;;2.80;;
50309;SDS011;36207;51.850;21.698;2024-01-25T04:23:09;14.40;;;3.50;;
50309;SDS011;36207;51.850;21.698;2024-01-25T04:25:35;13.50;;;3.20;;
50309;SDS011;36207;51.850;21.698;2024-01-25T04:28:02;10.70;;;3.20;;
50309;SDS011;36207;51.850;21.698;2024-01-25T04:30:28;10.90;;;3.00;;
50309;SDS011;36207;51.850;21.698;2024-01-25T04:32:54;9.40;;;3.10;;
50309;SDS011;36207;51.850;21.698;2024-01-25T04:35:19;8.70;;;2.70;;
50309;SDS011;36207;51.850;21.698;2024-01-25T04:37:45;12.10;;;3.40;;
50309;SDS011;36207;51.850;21.698;2024-01-25T04:40:11;12.80;;;3.30;;
50309;SDS011;36207;51.850;21.698;2024-01-25T04:42:37;12.30;;;3.40;;
50309;SDS011;36207;51.850;21.698;2024-01-25T04:45:03;11.40;;;2.90;;
50309;SDS011;36207;51.850;21.698;2024-01-25T04:47:29;13.10;;;2.80;;
50309;SDS011;36207;51.850;21.698;2024-01-25T04:49:56;11.40;;;3.00;;
50309;SDS011;36207;51.850;21.698;2024-01-25T04:52:22;11.40;;;2.90;;
50309;SDS011;36207;51.850;21.698;2024-01-25T04:54:48;11.80;;;3.20;;
50309;SDS011;36207;51.850;21.698;2024-01-25T04:57:14;12.20;;;3.10;;
50309;SDS011;36207;51.850;21.698;2024-01-25T04:59:40;14.40;;;3.70;;
50309;SDS011;36207;51.850;21.698;2024-01-25T05:02:06;12.30;;;3.00;;
50309;SDS011;36207;51.850;21.698;2024-01-25T05:04:32;11.10;;;3.30;;
50309;SDS011;36207;51.850;21.698;2024-01-25T05:07:00;11.90;;;2.90;;
50309;SDS011;36207;51.850;21.698;2024-01-25T05:09:26;9.30;;;2.90;;
50309;SDS011;36207;51.850;21.698;2024-01-25T05:11:52;10.70;;;3.30;;
50309;SDS011;36207;51.850;21.698;2024-01-25T05:14:18;10.60;;;3.10;;
50309;SDS011;36207;51.850;21.698;2024-01-25T05:16:44;11.50;;;3.30;;
50309;SDS011;36207;51.850;21.698;2024-01-25T05:19:10;11.40;;;3.20;;
50309;SDS011;36207;51.850;21.698;2024-01-25T05:21:36;8.40;;;2.60;;
50309;SDS011;36207;51.850;21.698;2024-01-25T05:24:02;11.70;;;3.40;;
50309;SDS011;36207;51.850;21.698;2024-01-25T05:26:28;9.90;;;2.70;;
50309;SDS011;36207;51.850;21.698;2024-01-25T05:28:54;10.30;;;3.10;;
50309;SDS011;36207;51.850;21.698;2024-01-25T05:31:21;9.10;;;3.10;;
50309;SDS011;36207;51.850;21.698;2024-01-25T05:33:46;7.90;;;2.80;;
50309;SDS011;36207;51.850;21.698;2024-01-25T05:36:12;12.10;;;2.90;;
50309;SDS011;36207;51.850;21.698;2024-01-25T05:38:39;8.40;;;2.10;;
50309;SDS011;36207;51.850;21.698;2024-01-25T05:41:05;8.70;;;2.80;;
50309;SDS011;36207;51.850;21.698;2024-01-25T05:43:32;8.10;;;2.60;;
50309;SDS011;36207;51.850;21.698;2024-01-25T05:45:58;14.20;;;3.10;;
50309;SDS011;36207;51.850;21.698;2024-01-25T05:48:24;9.20;;;2.60;;
50309;SDS011;36207;51.850;21.698;2024-01-25T05:50:50;9.90;;;3.10;;
50309;SDS011;36207;51.850;21.698;2024-01-25T05:53:16;9.80;;;2.60;;
50309;SDS011;36207;51.850;21.698;2024-01-25T05:55:45;13.80;;;3.30;;
50309;SDS011;36207;51.850;21.698;2024-01-25T05:58:11;9.90;;;2.50;;
50309;SDS011;36207;51.850;21.698;2024-01-25T06:00:37;10.30;;;2.90;;
50309;SDS011;36207;51.850;21.698;2024-01-25T06:03:04;13.40;;;2.90;;
50309;SDS011;36207;51.850;21.698;2024-01-25T06:05:30;14.80;;;3.20;;
50309;SDS011;36207;51.850;21.698;2024-01-25T06:07:56;11.60;;;3.20;;
50309;SDS011;36207;51.850;21.698;2024-01-25T06:10:22;11.90;;;3.20;;
50309;SDS011;36207;51.850;21.698;2024-01-25T06:12:48;12.20;;;3.10;;
50309;SDS011;36207;51.850;21.698;2024-01-25T06:15:14;15.50;;;3.10;;
50309;SDS011;36207;51.850;21.698;2024-01-25T06:17:40;15.50;;;3.50;;
50309;SDS011;36207;51.850;21.698;2024-01-25T06:20:06;11.90;;;3.30;;
50309;SDS011;36207;51.850;21.698;2024-01-25T06:22:32;11.40;;;3.40;;
50309;SDS011;36207;51.850;21.698;2024-01-25T06:24:58;12.70;;;3.70;;
50309;SDS011;36207;51.850;21.698;2024-01-25T06:27:24;13.30;;;3.80;;
50309;SDS011;36207;51.850;21.698;2024-01-25T06:29:50;13.00;;;4.00;;
50309;SDS011;36207;51.850;21.698;2024-01-25T06:32:16;10.30;;;3.30;;
50309;SDS011;36207;51.850;21.698;2024-01-25T06:34:42;10.70;;;3.20;;
50309;SDS011;36207;51.850;21.698;2024-01-25T06:37:08;10.30;;;3.10;;
50309;SDS011;36207;51.850;21.698;2024-01-25T06:39:36;13.00;;;3.40;;
50309;SDS011;36207;51.850;21.698;2024-01-25T06:42:02;12.80;;;4.10;;
50309;SDS011;36207;51.850;21.698;2024-01-25T06:44:30;13.30;;;3.20;;
50309;SDS011;36207;51.850;21.698;2024-01-25T06:46:56;12.90;;;3.70;;
50309;SDS011;36207;51.850;21.698;2024-01-25T06:49:22;15.00;;;4.10;;
50309;SDS011;36207;51.850;21.698;2024-01-25T06:51:48;12.70;;;3.70;;
50309;SDS011;36207;51.850;21.698;2024-01-25T06:54:13;14.90;;;3.70;;
50309;SDS011;36207;51.850;21.698;2024-01-25T06:56:40;14.50;;;3.60;;
50309;SDS011;36207;51.850;21.698;2024-01-25T06:59:05;18.20;;;4.20;;
50309;SDS011;36207;51.850;21.698;2024-01-25T07:01:31;17.20;;;3.20;;
50309;SDS011;36207;51.850;21.698;2024-01-25T07:03:58;11.60;;;3.20;;
50309;SDS011;36207;51.850;21.698;2024-01-25T07:06:24;11.90;;;3.80;;
50309;SDS011;36207;51.850;21.698;2024-01-25T07:08:51;14.90;;;3.60;;
50309;SDS011;36207;51.850;21.698;2024-01-25T07:11:19;13.60;;;3.80;;
50309;SDS011;36207;51.850;21.698;2024-01-25T07:13:44;16.60;;;3.70;;
50309;SDS011;36207;51.850;21.698;2024-01-25T07:16:11;15.60;;;3.60;;
50309;SDS011;36207;51.850;21.698;2024-01-25T07:18:37;15.50;;;3.60;;
50309;SDS011;36207;51.850;21.698;2024-01-25T07:21:03;17.10;;;4.10;;
50309;SDS011;36207;51.850;21.698;2024-01-25T07:23:30;17.80;;;3.90;;
50309;SDS011;36207;51.850;21.698;2024-01-25T07:25:56;12.20;;;3.50;;
50309;SDS011;36207;51.850;21.698;2024-01-25T07:28:22;15.40;;;3.70;;
50309;SDS011;36207;51.850;21.698;2024-01-25T07:30:48;17.40;;;3.80;;
50309;SDS011;36207;51.850;21.698;2024-01-25T07:33:15;13.90;;;3.70;;
50309;SDS011;36207;51.850;21.698;2024-01-25T07:35:41;17.20;;;4.10;;
50309;SDS011;36207;51.850;21.698;2024-01-25T07:38:11;16.30;;;3.60;;
50309;SDS011;36207;51.850;21.698;2024-01-25T07:40:38;12.60;;;3.30;;
50309;SDS011;36207;51.850;21.698;2024-01-25T07:43:04;12.00;;;3.50;;
50309;SDS011;36207;51.850;21.698;2024-01-25T07:45:31;12.10;;;3.50;;
50309;SDS011;36207;51.850;21.698;2024-01-25T07:47:57;13.90;;;3.80;;
50309;SDS011;36207;51.850;21.698;2024-01-25T07:50:24;10.00;;;3.50;;
50309;SDS011;36207;51.850;21.698;2024-01-25T07:52:50;13.50;;;4.10;;
50309;SDS011;36207;51.850;21.698;2024-01-25T07:55:16;11.30;;;3.40;;
50309;SDS011;36207;51.850;21.698;2024-01-25T07:57:42;14.50;;;3.50;;
50309;SDS011;36207;51.850;21.698;2024-01-25T08:00:08;8.20;;;2.80;;
50309;SDS011;36207;51.850;21.698;2024-01-25T08:02:35;11.10;;;3.60;;
50309;SDS011;36207;51.850;21.698;2024-01-25T08:05:02;9.80;;;3.20;;
50309;SDS011;36207;51.850;21.698;2024-01-25T08:07:28;8.20;;;3.10;;
50309;SDS011;36207;51.850;21.698;2024-01-25T08:09:54;12.20;;;3.70;;
50309;SDS011;36207;51.850;21.698;2024-01-25T08:12:24;15.30;;;4.00;;
50309;SDS011;36207;51.850;21.698;2024-01-25T08:14:51;13.70;;;3.40;;
50309;SDS011;36207;51.850;21.698;2024-01-25T08:17:16;9.20;;;3.30;;
50309;SDS011;36207;51.850;21.698;2024-01-25T08:19:43;12.20;;;3.10;;
50309;SDS011;36207;51.850;21.698;2024-01-25T08:22:09;11.10;;;3.30;;
50309;SDS011;36207;51.850;21.698;2024-01-25T08:24:35;11.70;;;3.60;;
50309;SDS011;36207;51.850;21.698;2024-01-25T08:27:01;8.50;;;3.10;;
50309;SDS011;36207;51.850;21.698;2024-01-25T08:29:28;9.20;;;3.00;;
50309;SDS011;36207;51.850;21.698;2024-01-25T08:31:54;8.40;;;3.00;;
50309;SDS011;36207;51.850;21.698;2024-01-25T08:34:20;8.20;;;2.90;;
50309;SDS011;36207;51.850;21.698;2024-01-25T08:36:46;8.60;;;3.60;;
50309;SDS011;36207;51.850;21.698;2024-01-25T08:39:12;8.90;;;3.10;;
50309;SDS011;36207;51.850;21.698;2024-01-25T08:41:39;9.00;;;3.20;;
50309;SDS011;36207;51.850;21.698;2024-01-25T08:44:07;9.20;;;3.10;;
50309;SDS011;36207;51.850;21.698;2024-01-25T08:46:34;8.60;;;3.20;;
50309;SDS011;36207;51.850;21.698;2024-01-25T08:49:00;9.30;;;3.70;;
50309;SDS011;36207;51.850;21.698;2024-01-25T08:51:25;10.60;;;3.80;;
50309;SDS011;36207;51.850;21.698;2024-01-25T08:53:51;8.70;;;3.40;;
50309;SDS011;36207;51.850;21.698;2024-01-25T08:56:17;9.50;;;3.50;;
50309;SDS011;36207;51.850;21.698;2024-01-25T08:58:44;8.80;;;3.20;;
50309;SDS011;36207;51.850;21.698;2024-01-25T09:01:11;10.10;;;3.40;;
50309;SDS011;36207;51.850;21.698;2024-01-25T09:03:37;8.90;;;3.50;;
50309;SDS011;36207;51.850;21.698;2024-01-25T09:06:03;6.70;;;3.20;;
50309;SDS011;36207;51.850;21.698;2024-01-25T09:08:31;8.90;;;3.50;;
50309;SDS011;36207;51.850;21.698;2024-01-25T09:10:57;10.20;;;3.50;;
50309;SDS011;36207;51.850;21.698;2024-01-25T09:13:24;10.40;;;3.70;;
50309;SDS011;36207;51.850;21.698;2024-01-25T09:15:50;8.60;;;3.50;;
50309;SDS011;36207;51.850;21.698;2024-01-25T09:18:16;9.70;;;3.30;;
50309;SDS011;36207;51.850;21.698;2024-01-25T09:20:42;7.90;;;3.50;;
50309;SDS011;36207;51.850;21.698;2024-01-25T09:23:13;7.60;;;3.50;;
50309;SDS011;36207;51.850;21.698;2024-01-25T09:25:44;8.50;;;3.50;;
50309;SDS011;36207;51.850;21.698;2024-01-25T09:28:11;7.60;;;3.40;;
50309;SDS011;36207;51.850;21.698;2024-01-25T09:30:40;7.40;;;3.60;;
50309;SDS011;36207;51.850;21.698;2024-01-25T09:33:07;7.50;;;3.60;;
50309;SDS011;36207;51.850;21.698;2024-01-25T09:35:33;9.80;;;3.60;;
50309;SDS011;36207;51.850;21.698;2024-01-25T09:37:59;9.00;;;3.90;;
50309;SDS011;36207;51.850;21.698;2024-01-25T09:40:25;6.10;;;2.90;;
50309;SDS011;36207;51.850;21.698;2024-01-25T09:42:52;9.50;;;3.50;;
50309;SDS011;36207;51.850;21.698;2024-01-25T09:45:18;9.80;;;4.10;;
50309;SDS011;36207;51.850;21.698;2024-01-25T09:47:48;7.90;;;3.10;;
50309;SDS011;36207;51.850;21.698;2024-01-25T09:50:14;9.30;;;3.70;;
50309;SDS011;36207;51.850;21.698;2024-01-25T09:52:43;7.00;;;2.70;;
50309;SDS011;36207;51.850;21.698;2024-01-25T09:55:12;8.70;;;3.40;;
50309;SDS011;36207;51.850;21.698;2024-01-25T09:57:40;7.80;;;3.40;;
50309;SDS011;36207;51.850;21.698;2024-01-25T10:00:10;10.00;;;3.30;;
50309;SDS011;36207;51.850;21.698;2024-01-25T10:02:37;7.80;;;3.30;;
50309;SDS011;36207;51.850;21.698;2024-01-25T10:05:04;6.10;;;2.70;;
50309;SDS011;36207;51.850;21.698;2024-01-25T10:07:40;7.10;;;3.10;;
50309;SDS011;36207;51.850;21.698;2024-01-25T10:10:10;8.10;;;2.70;;
50309;SDS011;36207;51.850;21.698;2024-01-25T10:12:38;7.70;;;3.10;;
50309;SDS011;36207;51.850;21.698;2024-01-25T10:15:06;6.90;;;2.80;;
50309;SDS011;36207;51.850;21.698;2024-01-25T10:17:32;5.40;;;3.00;;
50309;SDS011;36207;51.850;21.698;2024-01-25T10:19:58;4.50;;;2.40;;
50309;SDS011;36207;51.850;21.698;2024-01-25T10:22:24;7.00;;;2.40;;
50309;SDS011;36207;51.850;21.698;2024-01-25T10:24:50;4.00;;;2.30;;
50309;SDS011;36207;51.850;21.698;2024-01-25T10:27:18;4.60;;;2.30;;
50309;SDS011;36207;51.850;21.698;2024-01-25T10:29:45;5.80;;;2.60;;
50309;SDS011;36207;51.850;21.698;2024-01-25T10:32:11;7.20;;;2.80;;
50309;SDS011;36207;51.850;21.698;2024-01-25T10:34:38;5.00;;;2.60;;
50309;SDS011;36207;51.850;21.698;2024-01-25T10:37:07;5.30;;;2.90;;
50309;SDS011;36207;51.850;21.698;2024-01-25T10:39:34;4.00;;;2.40;;
50309;SDS011;36207;51.850;21.698;2024-01-25T10:42:00;4.90;;;2.70;;
50309;SDS011;36207;51.850;21.698;2024-01-25T10:44:26;4.90;;;2.80;;
50309;SDS011;36207;51.850;21.698;2024-01-25T10:46:52;4.90;;;2.80;;
50309;SDS011;36207;51.850;21.698;2024-01-25T10:49:22;4.30;;;2.80;;
50309;SDS011;36207;51.850;21.698;2024-01-25T10:51:47;5.40;;;3.10;;
50309;SDS011;36207;51.850;21.698;2024-01-25T10:54:15;5.70;;;2.80;;
50309;SDS011;36207;51.850;21.698;2024-01-25T10:56:42;4.80;;;2.90;;
50309;SDS011;36207;51.850;21.698;2024-01-25T10:59:12;3.60;;;2.90;;
50309;SDS011;36207;51.850;21.698;2024-01-25T11:01:45;5.90;;;3.10;;
50309;SDS011;36207;51.850;21.698;2024-01-25T11:04:12;5.40;;;3.10;;
50309;SDS011;36207;51.850;21.698;2024-01-25T11:06:38;6.10;;;2.70;;
50309;SDS011;36207;51.850;21.698;2024-01-25T11:09:05;5.10;;;3.20;;
50309;SDS011;36207;51.850;21.698;2024-01-25T11:11:31;5.10;;;2.80;;
50309;SDS011;36207;51.850;21.698;2024-01-25T11:13:58;5.30;;;2.90;;
50309;SDS011;36207;51.850;21.698;2024-01-25T11:16:28;5.20;;;3.20;;
50309;SDS011;36207;51.850;21.698;2024-01-25T11:18:56;4.70;;;3.00;;
50309;SDS011;36207;51.850;21.698;2024-01-25T11:26:39;5.70;;;3.30;;
50309;SDS011;36207;51.850;21.698;2024-01-25T11:29:05;4.30;;;2.80;;
50309;SDS011;36207;51.850;21.698;2024-01-25T11:31:31;5.40;;;2.90;;
50309;SDS011;36207;51.850;21.698;2024-01-25T11:33:58;5.80;;;3.00;;
50309;SDS011;36207;51.850;21.698;2024-01-25T11:36:25;5.30;;;2.90;;
50309;SDS011;36207;51.850;21.698;2024-01-25T11:38:52;6.30;;;3.10;;
50309;SDS011;36207;51.850;21.698;2024-01-25T11:41:18;6.10;;;2.60;;
50309;SDS011;36207;51.850;21.698;2024-01-25T11:43:45;7.50;;;3.30;;
50309;SDS011;36207;51.850;21.698;2024-01-25T11:46:14;4.70;;;3.00;;
50309;SDS011;36207;51.850;21.698;2024-01-25T11:48:40;4.70;;;2.60;;
50309;SDS011;36207;51.850;21.698;2024-01-25T11:51:09;5.30;;;3.00;;
50309;SDS011;36207;51.850;21.698;2024-01-25T11:53:38;5.10;;;3.10;;
50309;SDS011;36207;51.850;21.698;2024-01-25T11:56:06;5.70;;;2.90;;
50309;SDS011;36207;51.850;21.698;2024-01-25T11:58:36;4.30;;;2.60;;
50309;SDS011;36207;51.850;21.698;2024-01-25T12:01:03;4.50;;;2.70;;
50309;SDS011;36207;51.850;21.698;2024-01-25T12:03:36;4.30;;;2.60;;
50309;SDS011;36207;51.850;21.698;2024-01-25T12:06:06;5.00;;;3.00;;
50309;SDS011;36207;51.850;21.698;2024-01-25T12:08:34;6.00;;;3.00;;
50309;SDS011;36207;51.850;21.698;2024-01-25T12:11:10;5.90;;;2.70;;
50309;SDS011;36207;51.850;21.698;2024-01-25T12:13:40;5.20;;;2.70;;
50309;SDS011;36207;51.850;21.698;2024-01-25T12:16:08;4.80;;;2.80;;
50309;SDS011;36207;51.850;21.698;2024-01-25T12:18:35;7.00;;;3.10;;
50309;SDS011;36207;51.850;21.698;2024-01-25T12:21:04;5.40;;;2.80;;
50309;SDS011;36207;51.850;21.698;2024-01-25T12:23:36;6.00;;;3.10;;
50309;SDS011;36207;51.850;21.698;2024-01-25T12:26:04;5.90;;;2.90;;
50309;SDS011;36207;51.850;21.698;2024-01-25T12:28:31;6.00;;;3.00;;
50309;SDS011;36207;51.850;21.698;2024-01-25T12:31:01;8.00;;;3.90;;
50309;SDS011;36207;51.850;21.698;2024-01-25T12:33:30;7.30;;;3.50;;
50309;SDS011;36207;51.850;21.698;2024-01-25T12:35:57;6.70;;;3.40;;
50309;SDS011;36207;51.850;21.698;2024-01-25T12:38:24;6.40;;;3.30;;
50309;SDS011;36207;51.850;21.698;2024-01-25T12:40:51;7.40;;;3.50;;
50309;SDS011;36207;51.850;21.698;2024-01-25T12:43:18;7.30;;;3.50;;
50309;SDS011;36207;51.850;21.698;2024-01-25T12:45:44;5.60;;;3.40;;
50309;SDS011;36207;51.850;21.698;2024-01-25T12:48:10;6.10;;;3.30;;
50309;SDS011;36207;51.850;21.698;2024-01-25T12:50:37;6.60;;;3.70;;
50309;SDS011;36207;51.850;21.698;2024-01-25T12:53:03;11.00;;;3.90;;
50309;SDS011;36207;51.850;21.698;2024-01-25T12:55:30;5.50;;;3.40;;
50309;SDS011;36207;51.850;21.698;2024-01-25T12:57:57;6.50;;;3.50;;
50309;SDS011;36207;51.850;21.698;2024-01-25T13:00:24;7.80;;;3.40;;
50309;SDS011;36207;51.850;21.698;2024-01-25T13:02:51;6.60;;;3.50;;
50309;SDS011;36207;51.850;21.698;2024-01-25T13:05:19;6.60;;;3.40;;
50309;SDS011;36207;51.850;21.698;2024-01-25T13:07:45;7.90;;;3.40;;
50309;SDS011;36207;51.850;21.698;2024-01-25T13:10:11;7.70;;;3.90;;
50309;SDS011;36207;51.850;21.698;2024-01-25T13:12:38;3.60;;;2.10;;
50309;SDS011;36207;51.850;21.698;2024-01-25T13:15:07;4.10;;;2.20;;
50309;SDS011;36207;51.850;21.698;2024-01-25T13:17:34;3.40;;;1.90;;
50309;SDS011;36207;51.850;21.698;2024-01-25T13:20:04;4.30;;;2.20;;
50309;SDS011;36207;51.850;21.698;2024-01-25T13:22:32;3.50;;;2.20;;
50309;SDS011;36207;51.850;21.698;2024-01-25T13:25:01;3.50;;;2.00;;
50309;SDS011;36207;51.850;21.698;2024-01-25T13:27:28;2.30;;;1.60;;
50309;SDS011;36207;51.850;21.698;2024-01-25T13:29:54;3.00;;;1.80;;
50309;SDS011;36207;51.850;21.698;2024-01-25T13:32:22;3.30;;;2.00;;
50309;SDS011;36207;51.850;21.698;2024-01-25T13:34:48;3.20;;;2.10;;
50309;SDS011;36207;51.850;21.698;2024-01-25T13:37:14;3.20;;;2.20;;
50309;SDS011;36207;51.850;21.698;2024-01-25T13:39:40;5.00;;;2.60;;
50309;SDS011;36207;51.850;21.698;2024-01-25T13:42:06;4.60;;;2.90;;
50309;SDS011;36207;51.850;21.698;2024-01-25T13:44:32;5.50;;;3.20;;
50309;SDS011;36207;51.850;21.698;2024-01-25T13:46:58;4.80;;;2.80;;
50309;SDS011;36207;51.850;21.698;2024-01-25T13:49:25;4.70;;;2.80;;
50309;SDS011;36207;51.850;21.698;2024-01-25T13:51:51;5.30;;;3.10;;
50309;SDS011;36207;51.850;21.698;2024-01-25T13:54:17;6.40;;;3.00;;
50309;SDS011;36207;51.850;21.698;2024-01-25T13:56:43;4.20;;;2.60;;
50309;SDS011;36207;51.850;21.698;2024-01-25T13:59:09;6.10;;;3.10;;
50309;SDS011;36207;51.850;21.698;2024-01-25T14:01:35;5.70;;;3.10;;
50309;SDS011;36207;51.850;21.698;2024-01-25T14:04:03;6.20;;;2.70;;
50309;SDS011;36207;51.850;21.698;2024-01-25T14:06:29;8.40;;;3.70;;
50309;SDS011;36207;51.850;21.698;2024-01-25T14:08:55;8.00;;;3.60;;
50309;SDS011;36207;51.850;21.698;2024-01-25T14:11:21;9.00;;;4.00;;
50309;SDS011;36207;51.850;21.698;2024-01-25T14:13:47;6.50;;;3.80;;
50309;SDS011;36207;51.850;21.698;2024-01-25T14:16:13;8.60;;;3.90;;
50309;SDS011;36207;51.850;21.698;2024-01-25T14:18:42;8.90;;;3.80;;
50309;SDS011;36207;51.850;21.698;2024-01-25T14:21:09;6.70;;;3.60;;
50309;SDS011;36207;51.850;21.698;2024-01-25T14:23:36;7.20;;;3.30;;
50309;SDS011;36207;51.850;21.698;2024-01-25T14:26:02;6.00;;;3.30;;
50309;SDS011;36207;51.850;21.698;2024-01-25T14:28:28;7.50;;;3.40;;
50309;SDS011;36207;51.850;21.698;2024-01-25T14:30:54;7.00;;;3.30;;